Time;durP1;ratioP1;P1;durP2;ratioP2;P2;SDS_P1;SDS_P2;PMS_P1;PMS_P2;Temp;Humidity;BMP_temperature;BMP_pressure;BME280_temperature;BME280_humidity;BME280_pressure;Samples;Min_cycle;Max_cycle;Signal;HPM_P1;HPM_P2
2024/03/19 00:00:16;;;;;;;3.25;1.30;;;10.50;99.90;;;;;;5048776;23;20302;-92
2024/03/19 00:02:17;;;;;;;5.28;1.70;;;10.50;99.90;;;;;;5023931;23;20212;-91
2024/03/19 00:04:18;;;;;;;5.72;1.58;;;10.50;99.90;;;;;;5035418;23;20186;-92
2024/03/19 00:06:19;;;;;;;5.07;1.33;;;10.40;99.90;;;;;;5041845;23;20163;-91
2024/03/19 00:08:20;;;;;;;5.97;1.58;;;10.50;99.90;;;;;;5066008;23;20154;-91
2024/03/19 00:10:21;;;;;;;2.92;1.15;;;10.60;99.90;;;;;;5042715;23;20243;-93
2024/03/19 00:12:24;;;;;;;2.45;1.00;;;10.70;99.90;;;;;;5042401;23;20186;-92
2024/03/19 00:14:25;;;;;;;4.15;1.60;;;10.70;99.90;;;;;;5043137;23;20258;-93
2024/03/19 00:16:26;;;;;;;2.88;0.90;;;10.90;99.90;;;;;;5066304;23;20139;-91
2024/03/19 00:18:27;;;;;;;2.08;1.40;;;10.90;99.90;;;;;;5042936;23;20143;-93
2024/03/19 00:20:28;;;;;;;4.75;1.67;;;11.10;99.90;;;;;;5042520;23;20183;-93
2024/03/19 00:22:28;;;;;;;6.28;1.63;;;11.20;99.90;;;;;;5042760;23;20187;-92
2024/03/19 00:24:29;;;;;;;4.30;1.48;;;11.40;99.90;;;;;;5066254;23;20159;-92
2024/03/19 00:26:30;;;;;;;4.18;1.05;;;11.50;99.90;;;;;;5042515;23;20143;-93
2024/03/19 00:28:32;;;;;;;4.45;1.20;;;11.50;99.90;;;;;;5066576;23;20158;-92
2024/03/19 00:30:33;;;;;;;4.28;1.27;;;11.60;99.90;;;;;;5042275;23;20195;-92
2024/03/19 00:32:34;;;;;;;6.28;1.20;;;11.70;99.90;;;;;;5042591;23;20171;-93
2024/03/19 00:34:36;;;;;;;6.43;1.20;;;11.60;99.90;;;;;;5041879;23;20178;-92
2024/03/19 00:36:37;;;;;;;4.55;1.10;;;11.50;99.90;;;;;;5037293;23;20155;-93
2024/03/19 00:38:38;;;;;;;1.45;0.70;;;11.40;99.90;;;;;;5023120;23;20191;-91
2024/03/19 00:40:42;;;;;;;5.75;1.73;;;11.30;99.90;;;;;;5022296;23;20175;-92
2024/03/19 00:42:43;;;;;;;4.10;0.82;;;11.30;99.90;;;;;;5023909;23;20507;-93
2024/03/19 00:44:44;;;;;;;4.00;1.05;;;11.30;99.90;;;;;;5025116;23;20230;-92
2024/03/19 00:46:45;;;;;;;7.47;1.17;;;11.20;99.90;;;;;;5023821;23;20177;-96
2024/03/19 00:48:46;;;;;;;2.47;0.90;;;11.30;99.90;;;;;;5022353;23;20159;-92
2024/03/19 00:50:47;;;;;;;2.90;1.08;;;11.40;99.90;;;;;;4999395;23;20216;-92
2024/03/19 00:52:48;;;;;;;3.33;0.93;;;11.50;99.90;;;;;;5022184;23;20179;-92
2024/03/19 00:54:49;;;;;;;2.30;1.20;;;11.40;99.90;;;;;;4999161;23;20191;-93
2024/03/19 00:56:50;;;;;;;6.75;1.45;;;11.50;99.90;;;;;;5022408;23;20162;-93
2024/03/19 00:58:51;;;;;;;3.28;0.80;;;11.40;99.90;;;;;;4997927;23;20167;-91
2024/03/19 01:00:52;;;;;;;6.97;1.75;;;11.20;99.90;;;;;;5039260;23;20167;-92
2024/03/19 01:02:53;;;;;;;4.93;1.60;;;11.20;99.90;;;;;;5035384;23;20246;-92
2024/03/19 01:04:54;;;;;;;10.20;1.58;;;11.30;99.90;;;;;;5035981;23;20230;-92
2024/03/19 01:06:56;;;;;;;2.70;1.40;;;11.50;99.90;;;;;;5056300;23;20214;-92
2024/03/19 01:08:58;;;;;;;3.60;0.98;;;11.60;99.90;;;;;;5041589;23;20146;-92
2024/03/19 01:11:02;;;;;;;4.20;1.08;;;11.80;99.90;;;;;;5033299;23;20226;-93
2024/03/19 01:13:05;;;;;;;4.10;0.80;;;12.00;99.90;;;;;;5029348;23;20163;-96
2024/03/19 01:15:07;;;;;;;3.00;0.80;;;12.10;99.90;;;;;;5008029;23;20671;-95
2024/03/19 01:17:13;;;;;;;5.22;0.80;;;12.00;99.90;;;;;;5003645;23;20155;-90
2024/03/19 01:19:14;;;;;;;4.78;0.90;;;12.00;99.90;;;;;;5023636;23;20158;-91
2024/03/19 01:21:16;;;;;;;2.78;1.08;;;11.90;99.90;;;;;;5022803;23;20151;-92
2024/03/19 01:23:17;;;;;;;5.20;0.95;;;11.80;99.90;;;;;;4998966;23;20157;-95
2024/03/19 01:25:18;;;;;;;4.78;0.85;;;11.80;99.90;;;;;;4999190;23;20211;-93
2024/03/19 01:27:19;;;;;;;5.50;0.82;;;11.80;99.90;;;;;;5024271;23;20238;-93
2024/03/19 01:29:20;;;;;;;4.75;0.85;;;11.90;99.90;;;;;;5023826;23;20155;-93
2024/03/19 01:31:21;;;;;;;5.75;1.05;;;12.00;99.90;;;;;;5000586;23;20159;-92
2024/03/19 01:33:23;;;;;;;6.35;1.50;;;12.10;99.90;;;;;;5024578;23;20472;-95
2024/03/19 01:35:24;;;;;;;3.45;0.95;;;12.10;99.90;;;;;;5000313;23;20230;-95
2024/03/19 01:37:25;;;;;;;4.93;1.00;;;12.00;99.90;;;;;;5024241;23;20154;-93
2024/03/19 01:39:26;;;;;;;1.27;0.80;;;12.00;99.90;;;;;;5021791;23;20155;-94
2024/03/19 01:41:27;;;;;;;3.53;1.35;;;11.80;99.90;;;;;;5022596;23;20155;-95
2024/03/19 01:43:28;;;;;;;3.58;1.15;;;11.60;99.90;;;;;;4999434;23;20567;-92
2024/03/19 01:45:29;;;;;;;5.65;1.65;;;11.60;99.90;;;;;;4999973;23;20155;-94
2024/03/19 01:47:30;;;;;;;5.32;1.13;;;11.50;99.90;;;;;;5021812;23;20511;-92
2024/03/19 01:49:33;;;;;;;6.05;1.17;;;11.50;99.90;;;;;;5023277;23;20214;-96
2024/03/19 01:51:34;;;;;;;7.95;1.45;;;11.50;99.90;;;;;;5023966;23;20154;-92
2024/03/19 01:53:35;;;;;;;3.55;1.27;;;11.50;99.90;;;;;;4998316;23;20601;-92
2024/03/19 01:55:36;;;;;;;6.35;1.20;;;11.40;99.90;;;;;;5025821;23;20237;-91
2024/03/19 01:57:38;;;;;;;7.43;1.45;;;11.50;99.90;;;;;;5002611;23;20203;-91
2024/03/19 01:59:40;;;;;;;5.97;1.00;;;11.50;99.90;;;;;;5024079;23;20221;-92
2024/03/19 02:01:41;;;;;;;3.85;1.30;;;11.50;99.90;;;;;;5050296;23;20229;-96
2024/03/19 02:03:46;;;;;;;8.27;1.20;;;11.30;99.90;;;;;;5026686;23;20155;-92
2024/03/19 02:05:47;;;;;;;2.63;1.30;;;11.30;99.90;;;;;;5002112;23;20160;-95
2024/03/19 02:07:48;;;;;;;6.75;1.38;;;11.40;99.90;;;;;;5003281;23;20152;-93
2024/03/19 02:09:49;;;;;;;6.07;0.95;;;11.50;99.90;;;;;;5002760;23;20215;-91
2024/03/19 02:11:50;;;;;;;5.78;1.63;;;11.50;99.90;;;;;;5001070;23;20162;-96
2024/03/19 02:13:52;;;;;;;1.70;1.08;;;11.60;99.90;;;;;;5025648;23;20190;-93
2024/03/19 02:15:54;;;;;;;4.63;1.42;;;11.50;99.90;;;;;;5027465;23;20147;-92
2024/03/19 02:17:55;;;;;;;3.88;1.45;;;11.80;99.90;;;;;;5049307;23;20149;-91
2024/03/19 02:19:57;;;;;;;8.95;1.65;;;11.70;99.90;;;;;;5048427;23;20174;-92
2024/03/19 02:21:58;;;;;;;8.85;1.52;;;11.70;99.90;;;;;;5024277;23;20475;-92
2024/03/19 02:24:03;;;;;;;5.88;1.38;;;11.70;99.90;;;;;;4999913;23;20162;-93
2024/03/19 02:26:04;;;;;;;1.98;1.05;;;11.70;99.90;;;;;;5024055;23;20237;-95
2024/03/19 02:28:06;;;;;;;8.77;2.00;;;11.50;99.90;;;;;;5023864;23;20624;-91
2024/03/19 02:30:08;;;;;;;5.65;1.35;;;11.20;99.90;;;;;;5022957;23;20262;-92
2024/03/19 02:32:09;;;;;;;4.78;1.45;;;11.00;99.90;;;;;;5023655;23;20160;-92
2024/03/19 02:34:10;;;;;;;7.03;1.30;;;10.90;99.90;;;;;;5023453;23;20198;-92
2024/03/19 02:36:11;;;;;;;4.10;1.48;;;10.90;99.90;;;;;;5023468;23;20158;-96
2024/03/19 02:38:12;;;;;;;7.13;1.30;;;10.90;99.90;;;;;;5025380;23;20226;-95
2024/03/19 02:40:13;;;;;;;2.40;1.10;;;11.00;99.90;;;;;;5024173;23;20568;-91
2024/03/19 02:42:14;;;;;;;5.85;1.67;;;11.00;99.90;;;;;;5001034;23;20287;-96
2024/03/19 02:44:15;;;;;;;2.10;1.27;;;11.00;99.90;;;;;;5024660;23;20155;-93
2024/03/19 02:46:16;;;;;;;4.25;1.88;;;11.00;99.90;;;;;;5000311;23;20686;-92
2024/03/19 02:48:18;;;;;;;3.53;1.00;;;11.00;99.90;;;;;;5046631;23;20154;-93
2024/03/19 02:50:19;;;;;;;9.38;1.58;;;11.00;99.90;;;;;;5024211;23;20689;-93
2024/03/19 02:52:20;;;;;;;6.95;1.48;;;11.20;99.90;;;;;;5023880;23;20155;-92
2024/03/19 02:54:21;;;;;;;3.50;1.23;;;11.20;99.90;;;;;;5024486;23;20202;-93
2024/03/19 02:56:22;;;;;;;3.83;1.27;;;11.40;99.90;;;;;;5048528;23;20182;-92
2024/03/19 02:58:23;;;;;;;4.40;1.63;;;11.30;99.90;;;;;;5048775;23;20253;-96
2024/03/19 03:00:24;;;;;;;4.38;1.30;;;11.30;99.90;;;;;;5001350;23;20168;-91
2024/03/19 03:02:25;;;;;;;9.75;2.17;;;11.30;99.90;;;;;;5025324;23;20162;-91
2024/03/19 03:04:26;;;;;;;2.20;1.17;;;11.10;99.90;;;;;;5000765;23;20166;-95
2024/03/19 03:06:27;;;;;;;2.72;1.33;;;11.10;99.90;;;;;;5049040;23;20166;-91
2024/03/19 03:08:28;;;;;;;5.13;1.40;;;11.20;99.90;;;;;;5001595;23;20156;-94
2024/03/19 03:10:29;;;;;;;7.03;1.88;;;11.40;99.90;;;;;;5027463;23;20178;-92
2024/03/19 03:12:30;;;;;;;8.20;1.73;;;11.40;99.90;;;;;;5001003;23;20155;-92
2024/03/19 03:14:31;;;;;;;3.20;1.20;;;11.40;99.90;;;;;;5023191;23;20190;-91
2024/03/19 03:16:32;;;;;;;4.18;1.48;;;11.10;99.90;;;;;;5024791;23;20233;-92
2024/03/19 03:18:33;;;;;;;6.40;1.42;;;11.00;99.90;;;;;;5025194;23;20746;-95
2024/03/19 03:20:34;;;;;;;5.20;1.52;;;10.90;99.90;;;;;;5025877;23;20181;-91
2024/03/19 03:22:35;;;;;;;8.38;1.27;;;11.00;99.90;;;;;;5024668;23;20259;-92
2024/03/19 03:24:36;;;;;;;3.50;1.60;;;11.20;99.90;;;;;;5047883;23;20387;-93
2024/03/19 03:26:36;;;;;;;7.50;1.45;;;11.40;99.90;;;;;;5026198;23;20178;-93
2024/03/19 03:28:38;;;;;;;4.68;1.67;;;11.40;99.90;;;;;;5026146;23;20147;-92
2024/03/19 03:30:39;;;;;;;3.17;1.10;;;11.50;99.90;;;;;;5023824;23;20182;-93
2024/03/19 03:32:45;;;;;;;6.28;2.28;;;11.60;99.90;;;;;;5025446;23;20157;-92
2024/03/19 03:34:47;;;;;;;2.22;1.15;;;11.60;99.90;;;;;;5026280;23;20242;-95
2024/03/19 03:36:49;;;;;;;7.22;1.35;;;11.80;99.90;;;;;;5025353;23;20374;-92
2024/03/19 03:38:50;;;;;;;6.10;1.30;;;11.80;99.90;;;;;;5030753;23;20142;-92
2024/03/19 03:40:55;;;;;;;2.22;1.30;;;11.80;99.90;;;;;;5008460;23;20199;-94
2024/03/19 03:42:56;;;;;;;2.65;1.33;;;11.80;99.90;;;;;;5033257;23;20175;-93
2024/03/19 03:44:59;;;;;;;3.00;1.33;;;11.70;99.90;;;;;;5032029;23;20135;-94
2024/03/19 03:47:03;;;;;;;7.72;1.67;;;11.90;99.90;;;;;;5038870;23;20194;-93
2024/03/19 03:49:06;;;;;;;3.72;1.13;;;12.10;99.90;;;;;;5038717;23;20218;-95
2024/03/19 03:51:07;;;;;;;4.65;1.58;;;12.20;99.90;;;;;;5004647;23;20196;-93
2024/03/19 03:53:11;;;;;;;7.38;1.13;;;12.30;99.90;;;;;;5006487;23;20638;-95
2024/03/19 03:55:12;;;;;;;4.05;1.17;;;12.20;99.90;;;;;;5031926;23;20195;-93
2024/03/19 03:57:13;;;;;;;5.25;1.60;;;12.10;99.90;;;;;;5029618;23;20157;-93
2024/03/19 03:59:14;;;;;;;11.38;1.65;;;12.00;99.90;;;;;;5053818;23;20166;-92
2024/03/19 04:01:18;;;;;;;2.40;1.58;;;12.00;99.90;;;;;;5028485;23;20150;-91
2024/03/19 04:03:20;;;;;;;7.35;1.40;;;12.00;99.90;;;;;;5030220;23;20190;-93
2024/03/19 04:05:21;;;;;;;5.93;1.48;;;12.10;99.90;;;;;;5006529;23;20245;-94
2024/03/19 04:07:22;;;;;;;8.80;1.50;;;12.20;99.90;;;;;;5026782;23;20191;-92
2024/03/19 04:09:24;;;;;;;8.95;1.30;;;12.10;99.90;;;;;;5050667;23;20138;-93
2024/03/19 04:11:25;;;;;;;3.20;1.17;;;12.10;99.90;;;;;;5051708;23;20146;-94
2024/03/19 04:13:27;;;;;;;3.72;1.60;;;12.10;99.90;;;;;;5028708;23;20211;-93
2024/03/19 04:15:29;;;;;;;6.43;1.30;;;12.10;99.90;;;;;;5028966;23;20294;-96
2024/03/19 04:17:33;;;;;;;4.53;1.25;;;12.10;99.90;;;;;;5027847;23;20177;-96
2024/03/19 04:19:37;;;;;;;9.85;1.55;;;12.00;99.90;;;;;;5027051;23;20190;-94
2024/03/19 04:21:39;;;;;;;3.83;1.17;;;12.00;99.90;;;;;;5026531;23;20615;-93
2024/03/19 04:23:41;;;;;;;6.50;1.40;;;12.10;99.90;;;;;;5027926;23;20165;-95
2024/03/19 04:25:43;;;;;;;2.97;1.45;;;12.10;99.90;;;;;;5025337;23;20217;-92
2024/03/19 04:27:44;;;;;;;8.18;1.35;;;12.10;99.90;;;;;;5028492;23;20155;-95
2024/03/19 04:29:48;;;;;;;11.52;1.90;;;12.00;99.90;;;;;;5027977;23;20186;-91
2024/03/19 04:31:49;;;;;;;3.40;1.00;;;12.00;99.90;;;;;;5028754;23;20159;-92
2024/03/19 04:33:50;;;;;;;5.75;1.10;;;12.00;99.90;;;;;;5027916;23;20186;-91
2024/03/19 04:35:54;;;;;;;4.13;1.23;;;12.20;99.90;;;;;;5002342;23;20171;-93
2024/03/19 04:37:54;;;;;;;2.30;1.05;;;12.30;99.90;;;;;;5004884;23;20206;-92
2024/03/19 04:39:59;;;;;;;2.17;1.02;;;12.40;99.90;;;;;;5052610;23;20162;-92
2024/03/19 04:41:59;;;;;;;11.02;1.17;;;12.40;99.90;;;;;;5055141;23;20158;-93
2024/03/19 04:44:03;;;;;;;4.47;1.10;;;12.40;99.90;;;;;;5029261;23;20320;-92
2024/03/19 04:46:06;;;;;;;5.95;1.13;;;12.30;99.90;;;;;;5029350;23;20162;-92
2024/03/19 04:48:07;;;;;;;6.30;1.55;;;12.30;99.90;;;;;;5006131;23;20187;-95
2024/03/19 04:50:10;;;;;;;5.40;1.40;;;12.20;99.90;;;;;;5026841;23;20217;-93
2024/03/19 04:52:11;;;;;;;4.63;1.20;;;12.20;99.90;;;;;;5028173;23;20139;-95
2024/03/19 04:54:12;;;;;;;7.85;1.25;;;12.30;99.90;;;;;;5026107;23;20190;-96
2024/03/19 04:56:13;;;;;;;3.00;1.33;;;12.30;99.90;;;;;;5027131;23;20158;-96
2024/03/19 04:58:14;;;;;;;8.55;1.67;;;12.30;99.90;;;;;;5025816;23;20171;-92
2024/03/19 05:00:17;;;;;;;7.65;1.20;;;12.50;99.90;;;;;;5003539;23;20182;-95
2024/03/19 05:02:19;;;;;;;5.10;1.38;;;12.50;99.90;;;;;;5029964;23;20174;-96
2024/03/19 05:04:28;;;;;;;1.73;1.17;;;12.50;99.90;;;;;;5030231;23;20162;-91
2024/03/19 05:06:29;;;;;;;3.58;1.13;;;12.40;99.90;;;;;;5050858;23;20225;-92
2024/03/19 05:08:33;;;;;;;1.38;0.75;;;12.30;99.90;;;;;;5029219;23;20159;-93
2024/03/19 05:10:36;;;;;;;3.65;1.13;;;12.40;99.90;;;;;;5050435;23;20175;-93
2024/03/19 05:12:52;;;;;;;5.88;0.80;;;12.30;99.90;;;;;;5005469;23;20192;-92
2024/03/19 05:14:54;;;;;;;3.47;1.20;;;12.30;99.90;;;;;;5030428;23;20174;-92
2024/03/19 05:17:03;;;;;;;2.83;0.90;;;12.20;99.90;;;;;;5006348;23;20156;-95
2024/03/19 05:19:04;;;;;;;10.13;1.67;;;12.20;99.90;;;;;;5026988;23;20138;-93
2024/03/19 05:21:08;;;;;;;4.45;1.20;;;12.30;99.90;;;;;;5028092;23;20190;-93
2024/03/19 05:23:10;;;;;;;4.65;1.27;;;12.30;99.90;;;;;;5052249;23;20321;-92
2024/03/19 05:25:13;;;;;;;2.65;1.23;;;12.30;99.90;;;;;;5054110;23;20165;-92
2024/03/19 05:27:16;;;;;;;3.38;1.20;;;12.40;99.90;;;;;;5004018;23;20152;-92
2024/03/19 05:29:17;;;;;;;4.68;1.35;;;12.30;99.90;;;;;;5029691;23;20183;-93
2024/03/19 05:31:24;;;;;;;6.95;1.00;;;12.30;99.90;;;;;;5027384;23;20147;-96
2024/03/19 05:33:27;;;;;;;6.07;1.15;;;12.50;99.90;;;;;;5054286;23;20533;-92
2024/03/19 05:35:31;;;;;;;10.02;1.30;;;12.40;99.90;;;;;;5059741;23;20158;-94
2024/03/19 05:37:36;;;;;;;7.85;1.45;;;12.40;99.90;;;;;;5033928;23;20186;-95
2024/03/19 05:39:38;;;;;;;5.72;1.40;;;12.40;99.90;;;;;;5057519;23;20178;-95
2024/03/19 05:41:40;;;;;;;6.13;0.98;;;12.40;99.90;;;;;;5030043;23;20182;-93
2024/03/19 05:43:48;;;;;;;4.22;1.10;;;12.40;99.90;;;;;;5054501;23;20156;-95
2024/03/19 05:45:55;;;;;;;3.70;1.35;;;12.50;99.90;;;;;;5035492;23;20163;-94
2024/03/19 05:47:59;;;;;;;4.47;1.40;;;12.60;99.90;;;;;;5056009;23;20149;-95
2024/03/19 05:50:03;;;;;;;10.27;1.58;;;12.60;99.90;;;;;;5029964;23;20167;-94
2024/03/19 05:52:06;;;;;;;3.30;1.33;;;12.60;99.90;;;;;;5032027;23;20177;-93
2024/03/19 05:54:08;;;;;;;7.03;1.60;;;12.50;99.90;;;;;;5026328;23;20673;-93
2024/03/19 05:56:10;;;;;;;1.98;1.40;;;12.50;99.90;;;;;;5031877;23;20151;-93
2024/03/19 05:58:11;;;;;;;2.97;1.20;;;12.40;99.90;;;;;;5053461;23;20170;-96
2024/03/19 06:00:13;;;;;;;3.55;1.40;;;12.40;99.90;;;;;;5033172;23;20177;-93
2024/03/19 06:02:14;;;;;;;4.05;1.05;;;12.40;99.90;;;;;;5033846;23;20164;-95
2024/03/19 06:04:16;;;;;;;9.35;1.90;;;12.20;99.90;;;;;;5028970;23;20173;-95
2024/03/19 06:06:18;;;;;;;5.68;1.20;;;12.20;99.90;;;;;;5026060;23;20214;-93
2024/03/19 06:08:42;;;;;;;3.13;1.40;;;12.20;99.90;;;;;;5004660;23;20148;-95
2024/03/19 06:11:25;;;;;;;7.43;1.60;;;12.10;99.90;;;;;;5025009;23;20258;-96
2024/03/19 06:13:53;;;;;;;6.40;1.38;;;11.90;99.90;;;;;;5020860;23;20163;-95
2024/03/19 06:16:19;;;;;;;10.05;1.55;;;11.90;99.90;;;;;;5020893;23;20163;-95
2024/03/19 06:18:37;;;;;;;6.28;1.17;;;11.90;99.90;;;;;;5020862;23;20162;-94
2024/03/19 06:20:47;;;;;;;4.13;1.17;;;12.00;99.90;;;;;;4997583;23;20171;-96
2024/03/19 06:23:12;;;;;;;5.90;1.02;;;12.10;99.90;;;;;;5022451;23;20159;-93
2024/03/19 06:25:31;;;;;;;5.32;1.50;;;12.10;99.90;;;;;;5021814;23;20159;-93
2024/03/19 06:27:34;;;;;;;5.00;1.80;;;12.10;99.90;;;;;;5050064;23;20158;-93
2024/03/19 06:29:56;;;;;;;2.83;0.80;;;12.00;99.90;;;;;;5062668;23;20157;-94
2024/03/19 06:32:04;;;;;;;6.30;1.38;;;12.00;99.90;;;;;;5062126;23;20142;-95
2024/03/19 06:34:14;;;;;;;5.32;1.15;;;12.10;99.90;;;;;;5031790;23;20194;-94
2024/03/19 06:36:21;;;;;;;5.32;1.40;;;12.20;99.90;;;;;;5044873;23;20162;-96
2024/03/19 06:38:54;;;;;;;7.72;1.52;;;12.10;99.90;;;;;;5044037;23;20155;-94
2024/03/19 06:41:25;;;;;;;;;;;;;;;;;;;;;
2024/03/19 06:44:37;;;;;;;;;;;;;;;;;;;;;
2024/03/19 06:47:44;;;;;;;3.80;1.40;;;12.50;99.90;;;;;;5045433;23;20159;-94
2024/03/19 06:54:36;;;;;;;10.45;1.38;;;12.70;99.90;;;;;;5038368;23;20206;-96
2024/03/19 06:57:41;;;;;;;4.55;1.58;;;12.70;99.90;;;;;;4999022;23;20167;-96
2024/03/19 07:01:17;;;;;;;;;;;;;;;;;;;;;
2024/03/19 07:03:52;;;;;;;1.55;0.90;;;12.80;99.90;;;;;;5046976;23;20150;-95
2024/03/19 07:07:03;;;;;;;2.78;0.93;;;13.10;99.90;;;;;;5014043;23;20625;-94
2024/03/19 07:13:09;;;;;;;5.25;1.45;;;13.10;99.90;;;;;;4948063;24;20157;-96
2024/03/19 07:15:58;;;;;;;6.70;1.20;;;13.10;99.90;;;;;;4950468;23;20215;-95
2024/03/19 07:18:27;;;;;;;;;;;;;;;;;;;;;
2024/03/19 07:24:51;;;;;;;;;;;;;;;;;;;;;
2024/03/19 07:27:45;;;;;;;2.47;0.90;;;14.10;99.90;;;;;;4962203;23;20261;-94
2024/03/19 07:44:40;;;;;;;5.88;1.20;;;16.60;99.90;;;;;;5042591;23;20165;-94
2024/03/19 07:47:57;;;;;;;3.53;0.85;;;16.70;99.90;;;;;;5028355;23;20169;-96
2024/03/19 07:50:47;;;;;;;3.63;0.85;;;16.20;99.90;;;;;;5010324;23;20224;-96
2024/03/19 07:53:58;;;;;;;2.70;0.82;;;15.80;99.90;;;;;;5026312;23;20478;-94
2024/03/19 07:56:53;;;;;;;;;;;;;;;;;;;;;
2024/03/19 07:59:21;;;;;;;3.67;1.30;;;15.70;99.90;;;;;;5022000;23;20175;-95
2024/03/19 08:02:23;;;;;;;4.80;1.30;;;16.30;99.90;;;;;;5028430;23;20153;-96
2024/03/19 08:04:48;;;;;;;;;;;;;;;;;;;;;
2024/03/19 08:08:01;;;;;;;;;;;;;;;;;;;;;
2024/03/19 08:13:49;;;;;;;1.80;0.73;;;15.50;99.90;;;;;;5000484;23;20181;-95
2024/03/19 08:16:00;;;;;;;5.35;1.65;;;15.40;99.90;;;;;;4997338;23;20228;-96
2024/03/19 08:18:13;;;;;;;3.67;1.48;;;14.90;99.90;;;;;;5021223;23;20159;-92
2024/03/19 08:20:37;;;;;;;4.47;1.20;;;14.80;99.90;;;;;;5020559;23;20179;-93
2024/03/19 08:22:51;;;;;;;2.95;1.48;;;15.20;99.90;;;;;;5044352;23;20186;-94
2024/03/19 08:25:00;;;;;;;4.20;1.00;;;15.60;99.90;;;;;;5020108;23;20621;-94
2024/03/19 08:27:24;;;;;;;3.67;1.02;;;15.70;99.90;;;;;;5020473;23;20155;-94
2024/03/19 08:30:01;;;;;;;3.08;1.02;;;16.10;99.90;;;;;;5043387;23;20497;-94
2024/03/19 08:32:53;;;;;;;7.50;1.15;;;16.30;99.90;;;;;;5043873;23;20185;-93
2024/03/19 08:35:59;;;;;;;;;;;;;;;;;;;;;
2024/03/19 08:38:41;;;;;;;5.20;1.10;;;16.80;99.90;;;;;;5020769;23;20171;-95
2024/03/19 08:43:36;;;;;;;3.25;1.08;;;16.60;99.90;;;;;;5013696;23;20494;-93
2024/03/19 08:49:33;;;;;;;3.42;0.90;;;16.20;99.90;;;;;;5020793;23;20159;-94
2024/03/19 08:52:38;;;;;;;3.63;1.10;;;15.80;99.90;;;;;;5025427;23;20185;-96
2024/03/19 08:55:54;;;;;;;3.67;1.00;;;16.70;99.90;;;;;;5022578;23;20252;-94
2024/03/19 08:57:58;;;;;;;4.45;1.00;;;17.70;99.90;;;;;;4865030;24;20173;-94
2024/03/19 09:00:14;;;;;;;;;;;;;;;;;;;;;
2024/03/19 09:02:39;;;;;;;4.53;1.10;;;16.70;99.90;;;;;;5015302;23;20491;-93
2024/03/19 09:07:14;;;;;;;2.30;1.30;;;16.20;99.90;;;;;;5017912;23;20162;-96
2024/03/19 09:09:15;;;;;;;2.83;0.98;;;16.30;99.90;;;;;;5053256;23;20151;-92
2024/03/19 09:11:42;;;;;;;3.15;1.20;;;16.10;99.90;;;;;;4998137;23;20162;-93
2024/03/19 09:13:46;;;;;;;5.97;1.30;;;15.70;99.90;;;;;;4996656;23;20166;-94
2024/03/19 09:15:50;;;;;;;2.08;1.10;;;15.70;99.90;;;;;;5021037;23;20186;-94
2024/03/19 09:18:39;;;;;;;7.15;2.05;;;15.70;99.90;;;;;;5044451;23;20147;-93
2024/03/19 09:21:57;;;;;;;5.28;1.10;;;15.80;99.90;;;;;;5043265;23;20189;-94
2024/03/19 09:24:18;;;;;;;4.65;1.17;;;16.50;99.90;;;;;;4963090;23;20159;-93
2024/03/19 09:26:33;;;;;;;3.58;1.08;;;16.70;99.90;;;;;;5022207;23;20155;-95
2024/03/19 09:28:50;;;;;;;2.10;0.82;;;16.30;99.90;;;;;;5023815;23;20159;-94
2024/03/19 09:31:21;;;;;;;9.77;1.45;;;16.50;99.90;;;;;;5043389;23;20286;-94
2024/03/19 09:38:52;;;;;;;;;;;;;;;;;;;;;
2024/03/19 09:41:20;;;;;;;1.88;0.80;;;16.10;99.90;;;;;;5019926;23;20174;-93
2024/03/19 09:43:54;;;;;;;6.40;1.38;;;16.30;99.90;;;;;;5020271;23;20151;-95
2024/03/19 09:47:20;;;;;;;3.72;1.00;;;16.70;99.90;;;;;;5024760;23;20190;-94
2024/03/19 09:49:50;;;;;;;4.70;1.05;;;18.00;99.90;;;;;;5032878;23;20189;-95
2024/03/19 09:55:52;;;;;;;1.98;0.63;;;18.80;99.90;;;;;;4994465;23;20226;-95
2024/03/19 10:09:00;;;;;;;1.92;0.80;;;17.60;99.90;;;;;;5067735;23;20581;-92
2024/03/19 10:11:06;;;;;;;4.38;1.05;;;17.50;99.90;;;;;;5041279;23;20256;-95
2024/03/19 10:16:32;;;;;;;4.43;1.23;;;17.80;99.90;;;;;;5035582;23;20171;-92
2024/03/19 10:18:48;;;;;;;2.60;1.10;;;17.50;99.90;;;;;;5045849;23;20150;-93
2024/03/19 10:25:05;;;;;;;3.33;0.98;;;17.50;99.90;;;;;;5034306;23;20638;-94
2024/03/19 10:31:21;;;;;;;;;;;;;;;;;;;;;
2024/03/19 10:37:37;;;;;;;3.38;0.90;;;17.40;99.90;;;;;;4982612;23;20244;-94
2024/03/19 10:40:43;;;;;;;6.13;1.55;;;17.10;99.90;;;;;;5047153;23;20228;-96
2024/03/19 10:43:40;;;;;;;;;;;;;;;;;;;;;
2024/03/19 10:46:24;;;;;;;;;;;;;;;;;;;;;
2024/03/19 11:06:44;;;;;;;11.73;1.20;;;17.50;99.90;;;;;;5023910;23;20185;-96
